createdAt,value
2023-05-19T00:01:13.664Z,10.85
2023-05-19T00:03:48.986Z,10.73
2023-05-19T00:06:16.245Z,10.49
2023-05-19T00:08:43.098Z,10.56
2023-05-19T00:11:11.672Z,10.60
2023-05-19T00:13:38.444Z,10.50
2023-05-19T00:16:06.336Z,10.42
2023-05-19T00:18:33.469Z,9.92
2023-05-19T00:21:00.229Z,10.11
2023-05-19T00:23:26.890Z,9.93
2023-05-19T00:25:54.106Z,10.04
2023-05-19T00:28:22.237Z,10.13
2023-05-19T00:30:48.946Z,10.14
2023-05-19T00:33:15.710Z,10.03
2023-05-19T00:35:42.369Z,9.99
2023-05-19T00:38:09.055Z,9.94
2023-05-19T00:40:36.525Z,9.75
2023-05-19T00:43:05.513Z,9.60
2023-05-19T00:45:33.971Z,9.67
2023-05-19T00:48:00.697Z,9.62
2023-05-19T00:50:28.414Z,9.61
2023-05-19T00:52:55.775Z,9.66
2023-05-19T00:55:23.318Z,9.61
2023-05-19T00:57:50.474Z,9.58
2023-05-19T01:00:17.501Z,9.62
2023-05-19T01:02:45.787Z,9.42
2023-05-19T01:05:12.737Z,9.43
2023-05-19T01:07:40.029Z,9.32
2023-05-19T01:10:07.293Z,9.11
2023-05-19T01:12:34.544Z,9.12
2023-05-19T01:15:02.812Z,9.16
2023-05-19T01:17:31.096Z,9.26
2023-05-19T01:20:06.905Z,9.14
2023-05-19T01:22:55.009Z,9.15
2023-05-19T01:25:36.894Z,9.13
2023-05-19T01:28:16.024Z,8.88
2023-05-19T01:30:45.499Z,9.09
2023-05-19T01:33:17.026Z,9.30
2023-05-19T01:35:44.247Z,9.24
2023-05-19T01:38:11.929Z,9.45
2023-05-19T01:40:41.967Z,9.55
2023-05-19T01:43:10.020Z,9.50
2023-05-19T01:45:37.210Z,9.31
2023-05-19T01:48:08.426Z,9.10
2023-05-19T01:50:38.499Z,8.84
2023-05-19T01:53:05.280Z,8.81
2023-05-19T01:55:35.167Z,8.83
2023-05-19T01:58:06.857Z,8.78
2023-05-19T02:00:40.714Z,8.70
2023-05-19T02:03:15.499Z,8.59
2023-05-19T02:05:49.298Z,8.56
2023-05-19T02:08:20.543Z,8.50
2023-05-19T02:10:51.495Z,8.41
2023-05-19T02:13:20.564Z,8.34
2023-05-19T02:15:48.717Z,8.30
2023-05-19T02:18:18.289Z,8.20
2023-05-19T02:20:49.557Z,8.20
2023-05-19T02:23:16.293Z,8.27
2023-05-19T02:25:43.021Z,8.24
2023-05-19T02:28:09.822Z,8.26
2023-05-19T02:30:36.459Z,8.20
2023-05-19T02:33:03.261Z,7.96
2023-05-19T02:35:31.361Z,8.08
2023-05-19T02:37:58.859Z,8.01
2023-05-19T02:40:25.478Z,8.10
2023-05-19T02:42:52.200Z,8.14
2023-05-19T02:45:18.846Z,8.34
2023-05-19T02:47:45.626Z,8.28
2023-05-19T02:50:12.469Z,8.26
2023-05-19T02:52:40.668Z,8.22
2023-05-19T02:55:07.907Z,8.20
2023-05-19T02:57:35.062Z,8.13
2023-05-19T03:00:05.897Z,8.05
2023-05-19T03:02:34.273Z,8.01
2023-05-19T03:05:03.246Z,7.73
2023-05-19T03:07:29.934Z,7.89
2023-05-19T03:09:57.976Z,8.00
2023-05-19T03:12:24.924Z,7.96
2023-05-19T03:14:51.662Z,8.04
2023-05-19T03:17:18.380Z,8.06
2023-05-19T03:19:45.099Z,8.09
2023-05-19T03:22:11.923Z,8.00
2023-05-19T03:24:38.666Z,7.98
2023-05-19T03:27:06.964Z,7.87
2023-05-19T03:29:33.737Z,7.80
2023-05-19T03:32:01.781Z,7.63
2023-05-19T03:34:28.712Z,7.87
2023-05-19T03:36:56.087Z,7.91
2023-05-19T03:39:23.223Z,7.96
2023-05-19T03:41:50.184Z,7.91
2023-05-19T03:44:18.412Z,7.95
2023-05-19T03:46:45.288Z,7.98
2023-05-19T03:49:15.188Z,7.89
2023-05-19T03:52:00.140Z,7.82
2023-05-19T03:54:35.969Z,7.68
2023-05-19T03:57:02.961Z,7.63
2023-05-19T03:59:31.948Z,7.66
2023-05-19T04:01:59.488Z,7.51
2023-05-19T04:04:27.007Z,7.55
2023-05-19T04:06:53.817Z,7.64
2023-05-19T04:09:20.607Z,7.72
2023-05-19T04:11:47.376Z,7.72
2023-05-19T04:14:14.118Z,7.71
2023-05-19T04:16:42.200Z,7.71
2023-05-19T04:19:08.960Z,7.78
2023-05-19T04:21:35.870Z,7.85
2023-05-19T04:24:02.641Z,7.87
2023-05-19T04:26:31.209Z,7.91
2023-05-19T04:28:58.207Z,7.93
2023-05-19T04:31:24.950Z,8.08
2023-05-19T04:33:53.592Z,8.21
2023-05-19T04:36:21.780Z,8.31
2023-05-19T04:38:54.862Z,8.45
2023-05-19T04:41:23.572Z,8.67
2023-05-19T04:43:50.453Z,8.94
2023-05-19T04:46:18.644Z,9.39
2023-05-19T04:48:45.655Z,9.72
2023-05-19T04:51:14.366Z,10.14
2023-05-19T04:53:41.633Z,10.63
2023-05-19T04:56:13.678Z,11.13
2023-05-19T04:58:42.034Z,11.56
2023-05-19T05:01:09.658Z,11.83
2023-05-19T05:03:37.354Z,11.99
2023-05-19T05:06:04.939Z,12.00
2023-05-19T05:08:33.519Z,11.92
2023-05-19T05:11:00.474Z,11.69
2023-05-19T05:13:27.929Z,11.53
2023-05-19T05:15:56.245Z,11.40
2023-05-19T05:18:23.479Z,11.34
2023-05-19T05:20:50.356Z,11.33
2023-05-19T05:23:17.369Z,11.31
2023-05-19T05:25:48.224Z,11.40
2023-05-19T05:28:16.550Z,11.52
2023-05-19T05:30:44.931Z,11.74
2023-05-19T05:33:13.676Z,12.03
2023-05-19T05:35:41.459Z,12.33
2023-05-19T05:38:11.607Z,12.71
2023-05-19T05:40:38.731Z,13.19
2023-05-19T05:43:07.311Z,13.64
2023-05-19T05:45:38.481Z,14.12
2023-05-19T05:48:06.476Z,14.54
2023-05-19T05:50:33.962Z,14.88
2023-05-19T05:53:03.687Z,15.37
2023-05-19T05:55:31.279Z,15.95
2023-05-19T05:58:02.109Z,16.22
2023-05-19T06:00:30.722Z,16.41
2023-05-19T06:02:59.274Z,16.72
2023-05-19T06:05:26.516Z,17.50
2023-05-19T06:07:54.341Z,17.74
2023-05-19T06:10:25.042Z,17.84
2023-05-19T06:12:53.203Z,17.94
2023-05-19T06:15:21.504Z,18.03
2023-05-19T06:18:03.482Z,18.43
2023-05-19T06:20:30.439Z,18.74
2023-05-19T06:22:58.043Z,19.07
2023-05-19T06:25:26.923Z,19.31
2023-05-19T06:27:53.640Z,19.67
2023-05-19T06:30:22.896Z,20.21
2023-05-19T06:33:02.082Z,20.72
2023-05-19T06:35:30.817Z,20.89
2023-05-19T06:37:57.824Z,21.11
2023-05-19T06:40:24.734Z,21.43
2023-05-19T06:42:51.462Z,22.06
2023-05-19T06:45:28.719Z,22.18
2023-05-19T06:47:58.419Z,22.36
2023-05-19T06:50:25.703Z,22.15
2023-05-19T06:52:53.828Z,21.96
2023-05-19T06:55:20.575Z,21.57
2023-05-19T06:57:49.100Z,21.53
2023-05-19T07:00:18.791Z,21.75
2023-05-19T07:02:48.699Z,21.52
2023-05-19T07:05:15.396Z,21.20
2023-05-19T07:07:46.535Z,20.94
2023-05-19T07:10:18.940Z,20.28
2023-05-19T07:12:45.754Z,20.18
2023-05-19T07:15:12.575Z,20.28
2023-05-19T07:17:39.364Z,20.78
2023-05-19T07:20:06.988Z,20.89
2023-05-19T07:22:36.661Z,20.74
2023-05-19T07:25:03.389Z,20.33
2023-05-19T07:27:31.755Z,20.25
2023-05-19T07:29:58.767Z,20.51
2023-05-19T07:32:25.709Z,20.38
2023-05-19T07:34:52.562Z,20.36
2023-05-19T07:37:19.329Z,20.50
2023-05-19T07:39:46.014Z,20.01
2023-05-19T07:42:12.764Z,20.27
2023-05-19T07:44:40.773Z,20.55
2023-05-19T07:47:07.458Z,20.19
2023-05-19T07:49:34.225Z,20.05
2023-05-19T07:52:01.283Z,20.07
2023-05-19T07:54:28.016Z,20.27
2023-05-19T07:56:54.684Z,20.05
2023-05-19T07:59:21.334Z,20.14
2023-05-19T08:01:49.448Z,20.47
2023-05-19T08:04:16.368Z,20.65
2023-05-19T08:06:44.551Z,20.68
2023-05-19T08:09:12.073Z,20.68
2023-05-19T08:11:38.963Z,20.84
2023-05-19T08:14:05.774Z,20.67
2023-05-19T08:16:32.470Z,20.64
2023-05-19T08:19:02.723Z,20.83
2023-05-19T08:21:29.644Z,20.73
2023-05-19T08:23:57.211Z,20.90
2023-05-19T08:26:23.994Z,20.74
2023-05-19T08:28:50.723Z,20.67
2023-05-19T08:31:18.534Z,20.92
2023-05-19T08:33:45.813Z,20.84
2023-05-19T08:36:13.842Z,20.91
2023-05-19T08:38:40.636Z,21.04
2023-05-19T08:41:07.650Z,21.18
2023-05-19T08:43:34.433Z,21.14
2023-05-19T08:46:01.190Z,21.22
2023-05-19T08:48:29.244Z,21.14
2023-05-19T08:51:00.982Z,21.05
2023-05-19T08:53:34.784Z,21.14
2023-05-19T08:56:02.270Z,21.02
2023-05-19T08:58:29.143Z,21.08
2023-05-19T09:00:56.810Z,21.19
2023-05-19T09:03:24.204Z,21.02
2023-05-19T09:05:51.337Z,21.01
2023-05-19T09:08:18.480Z,20.88
2023-05-19T09:10:46.568Z,21.20
2023-05-19T09:13:13.259Z,21.20
2023-05-19T09:15:41.357Z,21.05
2023-05-19T09:18:08.969Z,21.22
2023-05-19T09:20:39.687Z,21.33
2023-05-19T09:23:06.536Z,21.34
2023-05-19T09:25:33.714Z,21.55
2023-05-19T09:28:02.092Z,21.90
2023-05-19T09:30:28.764Z,21.73
2023-05-19T09:32:55.704Z,21.85
2023-05-19T09:35:22.625Z,21.49
2023-05-19T09:37:49.297Z,21.27
2023-05-19T09:40:16.332Z,21.54
2023-05-19T09:42:44.209Z,21.91
2023-05-19T09:45:12.262Z,22.44
2023-05-19T09:47:39.580Z,22.11
2023-05-19T09:50:08.573Z,21.95
2023-05-19T09:52:35.883Z,22.18
2023-05-19T09:55:04.312Z,22.05
2023-05-19T09:57:34.298Z,22.10
2023-05-19T10:00:02.233Z,22.32
2023-05-19T10:02:32.985Z,22.24
2023-05-19T10:05:00.601Z,22.06
2023-05-19T10:07:27.433Z,21.54
2023-05-19T10:09:55.420Z,21.95
2023-05-19T10:12:25.402Z,22.43
2023-05-19T10:14:54.896Z,22.48
2023-05-19T10:17:22.235Z,22.34
2023-05-19T10:19:50.799Z,22.51
2023-05-19T10:22:17.533Z,22.66
2023-05-19T10:24:44.156Z,22.03
2023-05-19T10:27:12.068Z,21.21
2023-05-19T10:29:41.090Z,20.92
2023-05-19T10:32:11.576Z,20.64
2023-05-19T10:35:11.466Z,20.91
2023-05-19T10:37:45.031Z,21.18
2023-05-19T10:40:15.918Z,21.00
2023-05-19T10:42:46.221Z,20.57
2023-05-19T10:45:14.788Z,20.46
2023-05-19T10:47:41.545Z,21.02
2023-05-19T10:50:10.122Z,21.43
2023-05-19T10:52:37.655Z,21.61
2023-05-19T10:55:04.934Z,21.89
2023-05-19T10:57:34.719Z,21.88
2023-05-19T11:00:11.790Z,21.83
2023-05-19T11:02:42.371Z,22.14
2023-05-19T11:05:12.908Z,21.59
2023-05-19T11:07:41.566Z,21.32
2023-05-19T11:10:08.626Z,21.79
2023-05-19T11:12:43.046Z,21.79
2023-05-19T11:15:13.552Z,21.94
2023-05-19T11:17:41.838Z,22.26
2023-05-19T11:20:11.398Z,22.19
2023-05-19T11:22:39.952Z,21.85
2023-05-19T11:25:09.079Z,21.82
2023-05-19T11:27:38.184Z,21.55
2023-05-19T11:30:19.996Z,21.61
2023-05-19T11:32:48.001Z,21.80
2023-05-19T11:35:15.726Z,21.88
2023-05-19T11:37:44.117Z,21.72
2023-05-19T11:40:11.001Z,22.09
2023-05-19T11:42:37.838Z,22.32
2023-05-19T11:45:05.072Z,22.21
2023-05-19T11:47:46.468Z,22.24
2023-05-19T11:50:18.928Z,21.72
2023-05-19T11:52:47.676Z,21.75
2023-05-19T11:55:15.747Z,21.87
2023-05-19T11:57:56.073Z,22.00
2023-05-19T12:00:31.123Z,21.99
2023-05-19T12:02:58.092Z,21.71
2023-05-19T12:05:25.708Z,21.90
2023-05-19T12:07:54.169Z,22.04
2023-05-19T12:10:21.849Z,22.06
2023-05-19T12:12:49.831Z,21.65
2023-05-19T12:15:18.538Z,21.77
2023-05-19T12:17:46.677Z,21.88
2023-05-19T12:20:13.551Z,21.95
2023-05-19T12:22:40.396Z,21.85
2023-05-19T12:25:09.056Z,21.61
2023-05-19T12:27:37.112Z,21.49
2023-05-19T12:30:04.470Z,21.22
2023-05-19T12:32:33.946Z,21.12
2023-05-19T12:35:02.309Z,21.37
2023-05-19T12:37:33.243Z,21.66
2023-05-19T12:40:00.076Z,22.13
2023-05-19T12:42:32.598Z,22.23
2023-05-19T12:45:00.894Z,21.83
2023-05-19T12:47:31.227Z,21.70
2023-05-19T12:50:01.539Z,21.49
2023-05-19T12:52:32.659Z,21.35
2023-05-19T12:55:00.255Z,21.31
2023-05-19T12:57:32.142Z,21.35
2023-05-19T13:00:00.449Z,21.34
2023-05-19T13:02:27.228Z,21.27
2023-05-19T13:04:54.401Z,21.33
2023-05-19T13:07:21.076Z,21.30
2023-05-19T13:09:48.287Z,21.24
2023-05-19T13:12:14.944Z,21.22
2023-05-19T13:14:44.276Z,21.21
2023-05-19T13:17:10.984Z,21.23
2023-05-19T13:19:37.919Z,21.26
2023-05-19T13:22:04.661Z,21.34
2023-05-19T13:24:31.368Z,21.49
2023-05-19T13:26:58.074Z,21.44
2023-05-19T13:29:24.856Z,21.27
2023-05-19T13:31:52.881Z,21.35
2023-05-19T13:34:19.792Z,21.23
2023-05-19T13:36:48.242Z,21.38
2023-05-19T13:39:15.650Z,21.49
2023-05-19T13:41:42.321Z,21.27
2023-05-19T13:44:09.120Z,21.24
2023-05-19T13:46:44.666Z,21.32
2023-05-19T13:49:14.582Z,21.32
2023-05-19T13:51:42.670Z,21.38
2023-05-19T13:54:09.365Z,21.53
2023-05-19T13:56:35.986Z,21.45
2023-05-19T13:59:04.159Z,21.40
2023-05-19T14:01:30.952Z,21.43
2023-05-19T14:03:57.810Z,21.47
2023-05-19T14:06:26.164Z,21.45
2023-05-19T14:08:52.857Z,21.08
2023-05-19T14:11:19.969Z,21.04
2023-05-19T14:13:48.747Z,20.90
2023-05-19T14:16:16.292Z,20.87
2023-05-19T14:18:43.321Z,20.92
2023-05-19T14:21:09.929Z,20.95
2023-05-19T14:23:38.132Z,21.10
2023-05-19T14:26:05.278Z,21.26
2023-05-19T14:28:32.033Z,21.15
2023-05-19T14:30:58.751Z,21.23
2023-05-19T14:33:25.601Z,21.27
2023-05-19T14:35:52.640Z,21.11
2023-05-19T14:38:19.589Z,21.16
2023-05-19T14:40:48.560Z,21.11
2023-05-19T14:43:15.557Z,21.06
2023-05-19T14:45:42.435Z,20.97
2023-05-19T14:48:10.994Z,20.92
2023-05-19T14:50:37.874Z,20.57
2023-05-19T14:53:04.562Z,20.73
2023-05-19T14:55:31.279Z,20.70
2023-05-19T14:57:59.339Z,20.68
2023-05-19T15:00:26.328Z,20.61
2023-05-19T15:02:53.010Z,20.67
2023-05-19T15:05:19.954Z,20.77
2023-05-19T15:07:46.626Z,20.86
2023-05-19T15:10:13.343Z,20.71
2023-05-19T15:12:39.991Z,20.79
2023-05-19T15:15:09.050Z,20.95
2023-05-19T15:17:35.806Z,21.04
2023-05-19T15:20:02.700Z,21.15
2023-05-19T15:22:29.426Z,21.14
2023-05-19T15:24:56.157Z,21.12
2023-05-19T15:27:23.124Z,20.99
2023-05-19T15:29:50.038Z,20.96
2023-05-19T15:32:18.352Z,21.01
2023-05-19T15:34:45.627Z,21.09
2023-05-19T15:37:12.324Z,21.04
2023-05-19T15:39:39.037Z,20.72
2023-05-19T15:42:06.051Z,20.87
2023-05-19T15:44:33.055Z,20.80
2023-05-19T15:46:59.833Z,20.88
2023-05-19T15:49:27.976Z,20.99
2023-05-19T15:51:54.645Z,21.08
2023-05-19T15:54:21.374Z,21.12
2023-05-19T15:56:48.096Z,21.00
2023-05-19T15:59:14.811Z,21.11
2023-05-19T16:01:41.546Z,21.03
2023-05-19T16:04:08.376Z,21.11
2023-05-19T16:06:36.462Z,21.02
2023-05-19T16:09:03.551Z,21.09
2023-05-19T16:11:30.403Z,21.01
2023-05-19T16:13:57.180Z,21.00
2023-05-19T16:16:24.047Z,21.03
2023-05-19T16:18:50.952Z,20.82
2023-05-19T16:21:17.716Z,20.80
2023-05-19T16:23:46.032Z,20.59
2023-05-19T16:26:12.857Z,20.67
2023-05-19T16:28:39.559Z,20.68
2023-05-19T16:31:06.247Z,20.52
2023-05-19T16:33:32.914Z,20.45
2023-05-19T16:35:59.985Z,20.49
2023-05-19T16:38:29.602Z,20.49
2023-05-19T16:40:57.793Z,20.59
2023-05-19T16:43:24.613Z,20.48
2023-05-19T16:45:51.281Z,20.52
2023-05-19T16:48:18.190Z,20.47
2023-05-19T16:50:47.480Z,20.32
2023-05-19T16:53:14.159Z,20.35
2023-05-19T16:55:40.915Z,20.44
2023-05-19T16:58:10.638Z,20.50
2023-05-19T17:00:37.400Z,20.42
2023-05-19T17:03:04.296Z,20.31
2023-05-19T17:05:32.025Z,20.17
2023-05-19T17:07:58.669Z,20.11
2023-05-19T17:10:25.484Z,19.93
2023-05-19T17:12:52.251Z,19.84
2023-05-19T17:15:20.431Z,19.60
2023-05-19T17:17:47.187Z,19.56
2023-05-19T17:20:13.888Z,19.43
2023-05-19T17:22:40.842Z,19.44
2023-05-19T17:25:08.699Z,19.10
2023-05-19T17:27:35.461Z,19.06
2023-05-19T17:30:02.164Z,19.18
2023-05-19T17:32:35.765Z,19.13
2023-05-19T17:35:03.700Z,19.06
2023-05-19T17:37:30.421Z,19.07
2023-05-19T17:39:57.064Z,19.14
2023-05-19T17:42:23.746Z,19.13
2023-05-19T17:44:50.507Z,19.06
2023-05-19T17:47:17.464Z,19.02
2023-05-19T17:49:46.050Z,19.00
2023-05-19T17:52:12.991Z,18.82
2023-05-19T17:54:40.048Z,18.85
2023-05-19T17:57:11.413Z,18.88
2023-05-19T17:59:38.446Z,18.79
2023-05-19T18:02:05.578Z,18.89
2023-05-19T18:04:32.623Z,18.92
2023-05-19T18:07:02.529Z,18.95
2023-05-19T18:09:30.284Z,18.85
2023-05-19T18:11:57.049Z,18.71
2023-05-19T18:14:23.819Z,18.54
2023-05-19T18:16:50.697Z,18.51
2023-05-19T18:19:17.509Z,18.52
2023-05-19T18:21:44.207Z,18.60
2023-05-19T18:24:12.361Z,18.55
2023-05-19T18:26:41.846Z,18.54
2023-05-19T18:29:08.921Z,18.56
2023-05-19T18:31:35.803Z,18.55
2023-05-19T18:34:04.306Z,18.50
2023-05-19T18:36:31.458Z,18.54
2023-05-19T18:38:59.108Z,18.50
2023-05-19T18:41:27.219Z,18.48
2023-05-19T18:43:54.110Z,18.40
2023-05-19T18:46:20.898Z,18.40
2023-05-19T18:48:49.871Z,18.31
2023-05-19T18:51:18.692Z,18.30
2023-05-19T18:53:47.202Z,18.27
2023-05-19T18:56:15.872Z,18.21
2023-05-19T18:58:44.146Z,18.14
2023-05-19T19:01:10.960Z,18.10
2023-05-19T19:03:37.963Z,18.06
2023-05-19T19:06:04.727Z,17.98
2023-05-19T19:08:31.397Z,17.93
2023-05-19T19:11:01.074Z,17.81
2023-05-19T19:13:27.992Z,17.77
2023-05-19T19:15:56.143Z,17.71
2023-05-19T19:18:22.854Z,17.61
2023-05-19T19:20:49.653Z,17.55
2023-05-19T19:23:16.460Z,17.53
2023-05-19T19:25:43.129Z,17.48
2023-05-19T19:28:10.547Z,17.42
2023-05-19T19:30:37.343Z,17.43
2023-05-19T19:33:06.806Z,17.43
2023-05-19T19:35:33.902Z,17.46
2023-05-19T19:38:00.841Z,17.45
2023-05-19T19:40:27.806Z,17.47
2023-05-19T19:42:54.462Z,17.42
2023-05-19T19:45:21.206Z,17.38
2023-05-19T19:47:48.009Z,17.37
2023-05-19T19:50:16.538Z,17.29
2023-05-19T19:52:43.224Z,17.33
2023-05-19T19:55:10.050Z,17.30
2023-05-19T19:57:36.897Z,17.27
2023-05-19T20:00:07.758Z,17.26
2023-05-19T20:02:35.640Z,17.19
2023-05-19T20:05:02.554Z,17.17
2023-05-19T20:07:32.453Z,17.18
2023-05-19T20:09:59.808Z,17.17
2023-05-19T20:12:26.658Z,17.13
2023-05-19T20:14:53.361Z,17.13
2023-05-19T20:17:20.158Z,17.15
2023-05-19T20:19:47.027Z,17.12
2023-05-19T20:22:13.939Z,17.15
2023-05-19T20:24:42.029Z,17.13
2023-05-19T20:27:09.430Z,17.13
2023-05-19T20:29:36.743Z,17.10
2023-05-19T20:32:03.527Z,17.07
2023-05-19T20:34:30.288Z,17.03
2023-05-19T20:36:57.104Z,17.03
2023-05-19T20:39:23.783Z,16.99
2023-05-19T20:41:51.865Z,16.99
2023-05-19T20:44:18.574Z,16.99
2023-05-19T20:46:45.727Z,17.03
2023-05-19T20:49:12.496Z,17.01
2023-05-19T20:51:39.241Z,16.94
2023-05-19T20:54:07.325Z,16.96
2023-05-19T20:56:34.244Z,17.00
2023-05-19T20:59:02.723Z,16.99
2023-05-19T21:01:30.182Z,16.96
2023-05-19T21:03:56.843Z,16.95
2023-05-19T21:06:23.730Z,16.93
2023-05-19T21:08:50.613Z,16.94
2023-05-19T21:11:17.280Z,16.92
2023-05-19T21:13:44.030Z,16.90
2023-05-19T21:16:12.122Z,16.92
2023-05-19T21:18:38.832Z,16.90
2023-05-19T21:21:05.621Z,16.88
2023-05-19T21:23:32.332Z,16.85
2023-05-19T21:26:00.278Z,16.83
2023-05-19T21:28:26.980Z,16.81
2023-05-19T21:30:53.855Z,16.77
2023-05-19T21:33:22.172Z,16.69
2023-05-19T21:35:48.968Z,16.67
2023-05-19T21:38:23.771Z,16.66
2023-05-19T21:40:51.288Z,16.63
2023-05-19T21:43:18.009Z,16.64
2023-05-19T21:45:44.701Z,16.61
2023-05-19T21:48:11.521Z,16.60
2023-05-19T21:50:39.637Z,16.61
2023-05-19T21:53:06.506Z,16.55
2023-05-19T21:55:33.492Z,16.54
2023-05-19T21:58:02.357Z,16.54
2023-05-19T22:00:29.572Z,16.54
2023-05-19T22:02:56.393Z,16.52
2023-05-19T22:05:23.224Z,16.51
2023-05-19T22:07:51.264Z,16.53
2023-05-19T22:10:18.018Z,16.52
2023-05-19T22:12:44.681Z,16.52
2023-05-19T22:15:13.304Z,16.53
2023-05-19T22:17:40.144Z,16.57
2023-05-19T22:20:07.340Z,16.60
2023-05-19T22:22:34.283Z,16.66
2023-05-19T22:25:02.427Z,16.66
2023-05-19T22:27:29.081Z,16.66
2023-05-19T22:29:55.753Z,16.68
2023-05-19T22:32:22.476Z,16.67
2023-05-19T22:34:49.247Z,16.68
2023-05-19T22:37:15.990Z,16.67
2023-05-19T22:39:42.728Z,16.69
2023-05-19T22:42:11.136Z,16.68
2023-05-19T22:44:37.844Z,16.66
2023-05-19T22:47:04.845Z,16.64
2023-05-19T22:49:31.706Z,16.63
2023-05-19T22:51:58.412Z,16.66
2023-05-19T22:54:25.189Z,16.60
2023-05-19T22:56:51.874Z,16.62
2023-05-19T22:59:20.102Z,16.64
2023-05-19T23:01:47.122Z,16.61
2023-05-19T23:04:14.189Z,16.61
2023-05-19T23:06:41.476Z,16.60
2023-05-19T23:09:08.222Z,16.58
2023-05-19T23:11:35.972Z,16.55
2023-05-19T23:14:02.722Z,16.54
2023-05-19T23:16:31.012Z,16.56
2023-05-19T23:18:57.749Z,16.54
2023-05-19T23:21:24.506Z,16.52
2023-05-19T23:23:51.381Z,16.51
2023-05-19T23:26:18.096Z,16.51
2023-05-19T23:28:44.773Z,16.53
2023-05-19T23:31:11.676Z,16.55
2023-05-19T23:33:39.711Z,16.53
2023-05-19T23:36:10.028Z,16.51
2023-05-19T23:38:37.453Z,16.54
2023-05-19T23:41:04.993Z,16.53
2023-05-19T23:43:32.816Z,16.49
2023-05-19T23:45:59.746Z,16.45
2023-05-19T23:48:27.198Z,16.46
2023-05-19T23:50:55.463Z,16.43
2023-05-19T23:53:22.414Z,16.42
2023-05-19T23:55:49.163Z,16.39
2023-05-19T23:58:16.128Z,16.38
